Time;durP1;ratioP1;P1;durP2;ratioP2;P2;SDS_P1;SDS_P2;PMS_P1;PMS_P2;Temp;Humidity;BMP_temperature;BMP_pressure;BME280_temperature;BME280_humidity;BME280_pressure;Samples;Min_cycle;Max_cycle;Signal;HPM_P1;HPM_P2
2022/08/17 00:21:56;;;;;;;26.15;18.55;;;25.40;99.90;;;;;;3169127;23;20346;-92
2022/08/17 00:27:53;;;;;;;33.00;20.40;;;25.40;99.90;;;;;;5952923;23;21458;31
2022/08/17 07:11:04;;;;;;;18.30;16.50;;;34.00;99.90;;;;;;4907198;23;20064;-93
2022/08/17 07:25:42;;;;;;;18.75;16.45;;;35.10;99.90;;;;;;4983216;23;20499;-93
2022/08/17 07:28:09;;;;;;;17.50;16.02;;;35.80;99.90;;;;;;4880444;29;20044;-91
2022/08/17 07:30:43;;;;;;;18.27;16.30;;;35.80;99.90;;;;;;4873800;29;20033;-91
2022/08/17 07:33:11;;;;;;;16.27;14.93;;;36.10;99.90;;;;;;4849844;29;20037;-92
2022/08/17 07:35:41;;;;;;;16.23;15.02;;;35.50;99.90;;;;;;4877918;29;20029;-92
2022/08/17 07:38:26;;;;;;;17.20;15.80;;;34.20;99.90;;;;;;4863647;29;20048;-91
2022/08/17 07:40:56;;;;;;;19.25;17.25;;;33.80;99.90;;;;;;4879000;29;20041;-91
2022/08/17 07:43:26;;;;;;;18.58;17.08;;;33.80;99.90;;;;;;4864369;29;20037;-92
2022/08/17 07:48:48;;;;;;;18.98;17.08;;;34.80;99.90;;;;;;4858430;29;20162;-92
2022/08/17 07:51:24;;;;;;;17.90;16.27;;;35.10;99.90;;;;;;4856184;29;20082;-91
2022/08/17 07:53:52;;;;;;;18.30;16.75;;;35.40;99.90;;;;;;4868645;29;20029;-93
2022/08/17 07:56:51;;;;;;;19.02;17.25;;;35.60;99.90;;;;;;4851372;29;20033;-93
2022/08/17 07:59:21;;;;;;;19.10;17.45;;;35.70;99.90;;;;;;4853685;29;20025;-93
2022/08/17 08:02:03;;;;;;;18.65;17.13;;;34.80;99.90;;;;;;4854811;29;20032;-91
2022/08/17 08:04:36;;;;;;;18.02;16.13;;;34.50;99.90;;;;;;4858776;29;20029;-90
2022/08/17 08:07:23;;;;;;;18.45;16.75;;;34.50;99.90;;;;;;4866811;29;20033;-96
2022/08/17 08:42:40;;;;;;;17.35;15.95;;;35.50;99.90;;;;;;5394032;23;20474;-91
2022/08/17 08:45:13;;;;;;;17.58;15.93;;;35.50;99.90;;;;;;4885188;29;20545;-94
2022/08/17 08:48:15;;;;;;;17.23;15.37;;;34.90;99.90;;;;;;4884876;29;20505;-94
2022/08/17 08:51:00;;;;;;;17.85;16.08;;;35.20;99.90;;;;;;4880707;29;20379;-96
2022/08/17 08:53:57;;;;;;;16.55;15.15;;;34.90;99.90;;;;;;4869596;29;20032;-94
2022/08/17 08:56:43;;;;;;;16.60;15.23;;;34.70;99.90;;;;;;4871455;29;20045;-94
2022/08/17 08:59:35;;;;;;;17.20;15.80;;;34.80;99.90;;;;;;4869168;29;20028;-94
2022/08/17 09:02:14;;;;;;;17.10;15.50;;;34.70;99.90;;;;;;4868974;29;20039;-93
2022/08/17 09:05:15;;;;;;;18.13;16.38;;;35.00;99.90;;;;;;4869070;29;20537;-95
2022/08/17 09:07:58;;;;;;;17.27;15.48;;;35.00;99.90;;;;;;4870100;29;20033;-90
2022/08/17 09:10:50;;;;;;;16.55;15.25;;;35.20;99.90;;;;;;4868074;29;20033;-93
2022/08/17 09:13:48;;;;;;;17.58;15.68;;;35.00;99.90;;;;;;4869827;29;20056;-95
2022/08/17 09:16:52;;;;;;;17.33;15.73;;;34.60;99.90;;;;;;4869086;29;20036;-93
2022/08/17 09:19:31;;;;;;;17.50;15.90;;;34.90;99.90;;;;;;4877828;29;20475;-91
2022/08/17 09:22:30;;;;;;;17.23;15.45;;;35.00;99.90;;;;;;4869250;29;20033;-91
2022/08/17 09:25:27;;;;;;;17.27;15.82;;;35.00;99.90;;;;;;4828451;29;20048;-92
2022/08/17 09:28:06;;;;;;;19.15;15.77;;;35.10;99.90;;;;;;4844162;29;20098;-91
2022/08/17 09:31:10;;;;;;;18.42;16.55;;;35.00;99.90;;;;;;4828000;29;20042;-93
2022/08/17 09:33:43;;;;;;;16.87;15.33;;;34.40;99.90;;;;;;4792504;29;20092;-92
2022/08/17 09:36:33;;;;;;;17.02;15.13;;;34.60;99.90;;;;;;4792462;29;20043;-95
2022/08/17 09:39:08;;;;;;;16.40;15.05;;;34.80;99.90;;;;;;4806539;29;20112;-93
2022/08/17 09:42:13;;;;;;;16.88;15.23;;;34.80;99.90;;;;;;4776205;29;20047;-93
2022/08/17 09:44:43;;;;;;;16.40;14.85;;;34.30;99.90;;;;;;4791847;29;20039;-93
2022/08/17 09:47:35;;;;;;;17.17;15.32;;;34.00;99.90;;;;;;4776565;29;20062;-93
2022/08/17 09:50:12;;;;;;;16.35;14.73;;;33.60;99.90;;;;;;4776472;29;20043;-96
2022/08/17 09:52:41;;;;;;;15.95;14.40;;;33.10;99.90;;;;;;4791528;29;20129;-95
2022/08/17 09:55:08;;;;;;;16.05;14.40;;;33.60;99.90;;;;;;4776383;29;20039;-93
2022/08/17 09:57:56;;;;;;;15.23;13.85;;;33.90;99.90;;;;;;4791345;29;20035;-93
2022/08/17 10:00:34;;;;;;;16.77;15.40;;;34.50;99.90;;;;;;4791170;29;20035;-93
2022/08/17 10:03:17;;;;;;;16.60;15.07;;;34.30;99.90;;;;;;4812478;29;20109;-95
2022/08/17 10:06:02;;;;;;;16.60;14.37;;;34.30;99.90;;;;;;4827752;29;20047;-94
2022/08/17 10:08:40;;;;;;;16.27;14.63;;;34.40;99.90;;;;;;4818396;29;20286;-94
2022/08/17 10:12:14;;;;;;;16.20;14.60;;;34.50;99.90;;;;;;4846126;29;20041;-93
2022/08/17 10:14:38;;;;;;;16.27;14.75;;;34.20;99.90;;;;;;4861413;29;20036;-93
2022/08/17 10:17:14;;;;;;;15.82;14.20;;;34.50;99.90;;;;;;4846562;29;20475;-93
2022/08/17 10:20:13;;;;;;;15.70;14.35;;;34.00;99.90;;;;;;4861391;29;20034;-93
2022/08/17 10:28:16;;;;;;;15.88;14.73;;;34.60;99.90;;;;;;4876741;29;20037;-93
2022/08/17 10:30:51;;;;;;;16.00;14.73;;;34.10;99.90;;;;;;4846902;29;20060;-92
2022/08/17 10:33:23;;;;;;;16.40;15.02;;;34.30;99.90;;;;;;4845741;29;20402;-93
2022/08/17 10:36:12;;;;;;;16.63;14.90;;;34.70;99.90;;;;;;4860374;29;20052;-94
2022/08/17 10:38:57;;;;;;;16.85;15.18;;;35.10;99.90;;;;;;4880078;29;20032;-93
2022/08/17 10:41:30;;;;;;;17.48;16.05;;;34.60;99.90;;;;;;4865892;29;20063;-93
2022/08/17 10:44:23;;;;;;;16.73;15.30;;;34.30;99.90;;;;;;4901561;29;20111;-93
2022/08/17 10:47:16;;;;;;;16.83;15.63;;;33.80;99.90;;;;;;4903125;29;20292;-93
2022/08/17 10:49:52;;;;;;;16.70;15.40;;;34.00;99.90;;;;;;4901556;29;20024;-94
2022/08/17 10:52:18;;;;;;;17.77;15.98;;;34.30;99.90;;;;;;4901259;29;20561;-93
2022/08/17 10:54:47;;;;;;;17.35;15.73;;;34.70;99.90;;;;;;4885511;29;20036;-92
2022/08/17 10:57:30;;;;;;;17.35;15.75;;;34.00;99.90;;;;;;4902454;29;20430;-94
2022/08/17 10:59:59;;;;;;;17.17;15.63;;;33.30;99.90;;;;;;4885665;29;20032;-93
2022/08/17 11:02:38;;;;;;;17.13;15.45;;;32.80;99.90;;;;;;4901189;29;20025;-93
2022/08/17 11:05:22;;;;;;;19.80;15.25;;;33.00;99.90;;;;;;4901355;29;20070;-93
2022/08/17 11:08:14;;;;;;;16.27;14.88;;;32.70;99.90;;;;;;4886682;29;20028;-94
2022/08/17 11:10:47;;;;;;;17.42;15.35;;;32.40;99.90;;;;;;4886174;29;20051;-92
2022/08/17 11:13:29;;;;;;;16.15;14.75;;;32.50;99.90;;;;;;4886086;29;20040;-92
2022/08/17 11:16:14;;;;;;;16.98;15.20;;;32.40;99.90;;;;;;4885685;29;20033;-92
2022/08/17 11:19:07;;;;;;;16.48;15.00;;;32.40;99.90;;;;;;4885948;29;20482;-92
2022/08/17 11:21:55;;;;;;;16.10;14.48;;;32.70;99.90;;;;;;4901085;29;20036;-95
2022/08/17 11:24:37;;;;;;;16.83;14.27;;;32.70;99.90;;;;;;4885268;29;20036;-92
2022/08/17 11:27:30;;;;;;;16.77;14.45;;;32.50;99.90;;;;;;4900747;29;20044;-93
2022/08/17 11:30:04;;;;;;;16.98;15.20;;;32.40;99.90;;;;;;4900789;29;20055;-93
2022/08/17 11:32:48;;;;;;;16.70;14.98;;;32.30;99.90;;;;;;4886924;29;20050;-95
2022/08/17 11:35:21;;;;;;;;;;;32.00;99.90;;;;;;4905242;29;20024;-93
2022/08/17 11:37:57;;;;;;;16.50;14.73;;;31.60;99.90;;;;;;4888852;29;19958;-92
2022/08/17 11:40:43;;;;;;;49.38;44.25;;;31.10;99.90;;;;;;4889257;29;20047;-94
2022/08/17 11:43:44;;;;;;;49.83;39.47;;;30.40;99.90;;;;;;4901407;29;20045;-93
2022/08/17 12:08:31;;;;;;;12.73;10.90;;;29.50;99.90;;;;;;5020689;23;20052;-92
2022/08/17 12:27:50;;;;;;;15.45;14.00;;;29.70;99.90;;;;;;4936082;23;20057;-93
2022/08/17 12:30:20;;;;;;;16.60;14.20;;;29.50;99.90;;;;;;4858310;29;20029;-93
2022/08/17 12:32:47;;;;;;;16.08;14.50;;;29.40;99.90;;;;;;4850968;29;20064;-92
2022/08/17 12:35:31;;;;;;;16.98;15.38;;;29.30;99.90;;;;;;4851665;29;20025;-93
2022/08/17 12:37:59;;;;;;;16.20;12.30;;;29.50;99.90;;;;;;4886574;24;20100;-93
2022/08/17 12:40:30;;;;;;;18.73;14.40;;;29.40;99.90;;;;;;4868875;29;20056;-92
2022/08/17 12:43:17;;;;;;;15.68;14.10;;;29.70;99.90;;;;;;4869044;29;20033;-93
2022/08/17 12:45:52;;;;;;;19.95;14.20;;;29.80;99.90;;;;;;4869250;29;20208;-94
2022/08/17 12:48:28;;;;;;;17.95;14.57;;;30.00;99.90;;;;;;4870063;29;20419;-93
2022/08/17 12:51:06;;;;;;;14.93;13.48;;;30.10;99.90;;;;;;4869358;29;20096;-93
2022/08/17 12:53:42;;;;;;;17.38;15.00;;;30.40;99.90;;;;;;4869730;29;20085;-93
2022/08/17 12:56:12;;;;;;;15.80;14.52;;;30.50;99.90;;;;;;4869310;29;20040;-93
2022/08/17 12:59:05;;;;;;;17.27;15.48;;;30.80;99.90;;;;;;4869503;29;20039;-93
2022/08/17 13:01:52;;;;;;;;;;;;;;;;;;;;;
2022/08/17 13:04:19;;;;;;;17.25;15.23;;;31.00;99.90;;;;;;4885907;29;20029;-94
2022/08/17 13:06:50;;;;;;;17.05;15.43;;;31.00;99.90;;;;;;4870332;29;20128;-93
2022/08/17 13:09:29;;;;;;;18.17;15.30;;;31.00;99.90;;;;;;4868857;29;20025;-93
2022/08/17 13:11:59;;;;;;;17.70;16.10;;;31.30;99.90;;;;;;4868596;29;20048;-92
2022/08/17 13:14:27;;;;;;;17.50;15.73;;;31.40;99.90;;;;;;4868715;29;20028;-94
2022/08/17 13:16:59;;;;;;;16.77;15.63;;;31.20;99.90;;;;;;4868561;29;20297;-93
2022/08/17 13:19:29;;;;;;;18.58;13.90;;;31.30;99.90;;;;;;4868399;29;20084;-92
2022/08/17 13:21:59;;;;;;;14.57;12.43;;;31.40;99.90;;;;;;4868485;29;20513;-93
2022/08/17 13:24:30;;;;;;;13.40;12.30;;;31.50;99.90;;;;;;4869082;29;20032;-93
2022/08/17 13:27:02;;;;;;;13.68;12.50;;;31.50;99.90;;;;;;4868927;29;20111;-92
2022/08/17 13:29:51;;;;;;;14.13;12.65;;;31.60;99.90;;;;;;4869487;29;20035;-94
2022/08/17 13:32:40;;;;;;;14.27;13.00;;;31.70;99.90;;;;;;4878195;29;20081;-93
2022/08/17 13:35:28;;;;;;;15.02;12.60;;;31.50;99.90;;;;;;4870006;29;20044;-93
2022/08/17 13:38:18;;;;;;;15.25;13.70;;;31.30;99.90;;;;;;4868811;29;20127;-93
2022/08/17 13:40:51;;;;;;;15.23;13.85;;;31.00;99.90;;;;;;4868234;29;20044;-93
2022/08/17 13:43:49;;;;;;;13.95;12.95;;;30.90;99.90;;;;;;4868153;29;20041;-93
2022/08/17 13:46:22;;;;;;;14.90;13.13;;;31.10;99.90;;;;;;4868456;29;20043;-94
2022/08/17 13:49:01;;;;;;;15.18;13.60;;;31.20;99.90;;;;;;4871509;29;20096;-95
2022/08/17 13:51:54;;;;;;;14.85;13.15;;;31.40;99.90;;;;;;4865959;29;20587;-93
2022/08/17 13:54:33;;;;;;;15.13;13.55;;;31.50;99.90;;;;;;4880568;29;20072;-94
2022/08/17 13:57:16;;;;;;;15.25;13.43;;;31.70;99.90;;;;;;4882653;29;20104;-93
2022/08/17 13:59:49;;;;;;;15.40;13.95;;;31.70;99.90;;;;;;4880021;29;20032;-93
2022/08/17 14:02:19;;;;;;;15.37;13.97;;;31.90;99.90;;;;;;4886318;29;20060;-92
2022/08/17 14:04:47;;;;;;;17.65;13.73;;;31.90;99.90;;;;;;4898465;29;20280;-93
2022/08/17 18:12:41;;;;;;;16.77;14.10;;;28.40;99.90;;;;;;5039871;23;20107;-93
2022/08/17 18:15:33;;;;;;;15.60;14.07;;;28.40;99.90;;;;;;4851676;29;20029;-94
2022/08/17 18:18:25;;;;;;;14.60;13.40;;;28.30;99.90;;;;;;4850007;29;20037;-94
2022/08/17 18:21:12;;;;;;;14.50;13.00;;;28.20;99.90;;;;;;4849468;29;20041;-95
2022/08/17 18:24:01;;;;;;;14.65;13.50;;;28.10;99.90;;;;;;4865367;29;20037;-94
2022/08/17 18:26:47;;;;;;;14.00;12.88;;;28.10;99.90;;;;;;4850035;29;20030;-93
2022/08/17 18:29:43;;;;;;;14.45;13.18;;;28.00;99.90;;;;;;4849536;29;20120;-93
2022/08/17 18:32:40;;;;;;;14.23;13.02;;;27.80;99.90;;;;;;4865674;29;20097;-92
2022/08/17 18:35:12;;;;;;;14.68;13.27;;;27.80;99.90;;;;;;4864733;29;20025;-93
2022/08/17 18:37:48;;;;;;;14.50;12.95;;;27.70;99.90;;;;;;4849553;29;20043;-93
2022/08/17 18:40:20;;;;;;;14.25;13.05;;;27.70;99.90;;;;;;4849898;29;20040;-91
2022/08/17 18:42:59;;;;;;;17.67;12.52;;;27.60;99.90;;;;;;4849340;29;20040;-94
2022/08/17 18:45:39;;;;;;;14.40;13.05;;;27.60;99.90;;;;;;4850813;29;20048;-93
2022/08/17 18:48:51;;;;;;;14.23;12.93;;;27.60;99.90;;;;;;4866796;29;20033;-94
2022/08/17 18:51:35;;;;;;;14.68;13.20;;;27.50;99.90;;;;;;4856593;29;20448;-93
2022/08/17 18:54:15;;;;;;;14.85;13.55;;;27.50;99.90;;;;;;4865839;29;20045;-94
2022/08/17 18:57:30;;;;;;;14.98;13.52;;;27.50;99.90;;;;;;4866070;29;20029;-94
2022/08/17 19:00:40;;;;;;;;;;;;;;;;;;;;;
